createdAt,value
2022-09-23T00:01:00.035Z,94097.13
2022-09-23T00:02:01.618Z,94094.28
2022-09-23T00:03:03.393Z,94090.41
2022-09-23T00:04:04.797Z,94089.56
2022-09-23T00:05:07.405Z,94093.81
2022-09-23T00:06:10.334Z,94088.91
2022-09-23T00:07:11.768Z,94091.56
2022-09-23T00:08:13.167Z,94094.41
2022-09-23T00:09:14.589Z,94090.41
2022-09-23T00:10:16.006Z,94088.44
2022-09-23T00:11:19.734Z,94081.06
2022-09-23T00:12:22.529Z,94086.94
2022-09-23T00:13:24.853Z,94085.34
2022-09-23T00:14:26.840Z,94086.72
2022-09-23T00:15:28.247Z,94089.00
2022-09-23T00:16:32.793Z,94082.13
2022-09-23T00:17:34.342Z,94087.88
2022-09-23T00:18:35.839Z,94083.78
2022-09-23T00:19:38.582Z,94085.22
2022-09-23T00:20:40.008Z,94083.41
2022-09-23T00:21:41.397Z,94082.78
2022-09-23T00:22:42.867Z,94091.66
2022-09-23T00:23:44.361Z,94084.91
2022-09-23T00:24:45.743Z,94082.91
2022-09-23T00:25:55.827Z,94088.84
2022-09-23T00:26:57.213Z,94085.13
2022-09-23T00:27:59.974Z,94081.00
2022-09-23T00:29:01.420Z,94083.13
2022-09-23T00:30:04.669Z,94083.31
2022-09-23T00:31:08.196Z,94087.91
2022-09-23T00:32:09.696Z,94082.00
2022-09-23T00:33:11.155Z,94079.53
2022-09-23T00:34:12.574Z,94075.28
2022-09-23T00:35:14.018Z,94078.25
2022-09-23T00:36:16.218Z,94080.19
2022-09-23T00:37:17.650Z,94080.03
2022-09-23T00:38:19.058Z,94075.44
2022-09-23T00:39:20.466Z,94074.94
2022-09-23T00:40:21.928Z,94078.91
2022-09-23T00:41:23.972Z,94083.16
2022-09-23T00:42:25.371Z,94066.44
2022-09-23T00:43:39.531Z,94074.16
2022-09-23T00:44:44.679Z,94075.44
2022-09-23T00:45:49.415Z,94068.25
2022-09-23T00:46:50.878Z,94077.59
2022-09-23T00:47:54.867Z,94071.66
2022-09-23T00:49:00.210Z,94075.78
2022-09-23T00:50:05.770Z,94073.16
2022-09-23T00:51:11.420Z,94072.16
2022-09-23T00:52:16.930Z,94068.25
2022-09-23T00:53:22.220Z,94072.50
2022-09-23T00:54:26.124Z,94066.09
2022-09-23T00:55:33.005Z,94062.66
2022-09-23T00:56:35.548Z,94062.50
2022-09-23T00:57:39.908Z,94060.03
2022-09-23T00:58:45.495Z,94062.66
2022-09-23T00:59:48.875Z,94058.56
2022-09-23T01:00:50.708Z,94064.63
2022-09-23T01:01:54.214Z,94062.34
2022-09-23T01:02:55.620Z,94062.16
2022-09-23T01:03:57.560Z,94057.25
2022-09-23T01:05:00.860Z,94059.34
2022-09-23T01:06:02.303Z,94056.09
2022-09-23T01:07:04.019Z,94057.91
2022-09-23T01:08:08.235Z,94057.91
2022-09-23T01:09:09.735Z,94066.06
2022-09-23T01:10:14.356Z,94066.69
2022-09-23T01:11:30.023Z,94055.88
2022-09-23T01:12:56.557Z,94056.56
2022-09-23T01:14:14.167Z,94062.44
2022-09-23T01:15:19.448Z,94058.50
2022-09-23T01:16:29.997Z,94054.09
2022-09-23T01:17:37.593Z,94058.34
2022-09-23T01:18:46.475Z,94053.75
2022-09-23T01:20:08.893Z,94049.81
2022-09-23T01:21:23.170Z,94052.56
2022-09-23T01:22:31.155Z,94052.09
2022-09-23T01:24:07.777Z,94052.09
2022-09-23T01:25:27.757Z,94050.06
2022-09-23T01:26:48.397Z,94053.16
2022-09-23T01:28:08.122Z,94054.66
2022-09-23T01:29:34.089Z,94052.00
2022-09-23T01:30:47.297Z,94043.81
2022-09-23T01:31:57.198Z,94047.38
2022-09-23T01:33:07.887Z,94045.63
2022-09-23T01:34:13.140Z,94046.63
2022-09-23T01:35:24.549Z,94051.34
2022-09-23T01:36:35.822Z,94054.28
2022-09-23T01:37:50.768Z,94044.75
2022-09-23T01:38:59.196Z,94047.69
2022-09-23T01:40:06.848Z,94048.50
2022-09-23T01:41:20.588Z,94045.91
2022-09-23T01:42:29.401Z,94041.00
2022-09-23T01:43:37.791Z,94040.03
2022-09-23T01:44:46.227Z,94037.91
2022-09-23T01:45:54.121Z,94041.00
2022-09-23T01:46:58.166Z,94043.75
2022-09-23T01:48:06.617Z,94041.47
2022-09-23T01:49:14.908Z,94032.75
2022-09-23T01:50:19.069Z,94030.94
2022-09-23T01:51:26.578Z,94037.47
2022-09-23T01:52:35.760Z,94034.16
2022-09-23T01:53:45.070Z,94027.94
2022-09-23T01:54:53.198Z,94034.59
2022-09-23T01:55:58.728Z,94033.31
2022-09-23T01:57:04.731Z,94031.31
2022-09-23T01:58:12.318Z,94030.47
2022-09-23T01:59:18.508Z,94034.72
2022-09-23T02:00:22.862Z,94033.22
2022-09-23T02:01:31.021Z,94027.34
2022-09-23T02:02:35.902Z,94034.56
2022-09-23T02:03:43.986Z,94030.16
2022-09-23T02:04:50.393Z,94030.97
2022-09-23T02:05:55.936Z,94031.94
2022-09-23T02:07:02.492Z,94030.47
2022-09-23T02:08:08.791Z,94031.28
2022-09-23T02:09:14.040Z,94025.75
2022-09-23T02:10:19.573Z,94030.00
2022-09-23T02:11:21.018Z,94032.78
2022-09-23T02:12:25.451Z,94026.88
2022-09-23T02:13:32.241Z,94024.56
2022-09-23T02:14:40.101Z,94020.16
2022-09-23T02:15:46.313Z,94026.50
2022-09-23T02:16:52.027Z,94027.50
2022-09-23T02:17:59.284Z,94028.78
2022-09-23T02:19:07.131Z,94024.81
2022-09-23T02:20:11.661Z,94026.47
2022-09-23T02:21:16.678Z,94031.84
2022-09-23T02:22:21.695Z,94032.47
2022-09-23T02:23:27.939Z,94027.78
2022-09-23T02:24:31.602Z,94026.41
2022-09-23T02:25:44.894Z,94030.81
2022-09-23T02:26:51.839Z,94025.09
2022-09-23T02:28:01.297Z,94025.56
2022-09-23T02:29:11.512Z,94028.50
2022-09-23T02:30:17.093Z,94035.16
2022-09-23T02:31:30.821Z,94027.59
2022-09-23T02:32:39.993Z,94021.88
2022-09-23T02:33:50.511Z,94022.97
2022-09-23T02:34:58.566Z,94024.09
2022-09-23T02:36:07.119Z,94014.41
2022-09-23T02:37:15.980Z,94024.38
2022-09-23T02:38:26.421Z,94025.47
2022-09-23T02:39:37.201Z,94018.25
2022-09-23T02:40:46.871Z,94021.00
2022-09-23T02:41:55.467Z,94022.97
2022-09-23T02:43:07.744Z,94022.97
2022-09-23T02:44:12.584Z,94023.59
2022-09-23T02:45:14.276Z,94019.16
2022-09-23T02:46:16.791Z,94021.53
2022-09-23T02:47:24.361Z,94019.06
2022-09-23T02:48:32.249Z,94019.31
2022-09-23T02:49:34.578Z,94012.72
2022-09-23T02:50:37.644Z,94014.13
2022-09-23T02:51:40.371Z,94008.56
2022-09-23T02:52:41.822Z,94013.41
2022-09-23T02:53:43.373Z,94010.16
2022-09-23T02:54:44.947Z,94009.69
2022-09-23T02:55:46.366Z,94016.19
2022-09-23T02:56:47.823Z,94009.16
2022-09-23T02:57:49.266Z,94003.13
2022-09-23T02:58:53.907Z,94009.97
2022-09-23T02:59:55.489Z,94010.78
2022-09-23T03:01:07.587Z,94003.13
2022-09-23T03:02:35.850Z,94009.94
2022-09-23T03:03:46.719Z,94005.22
2022-09-23T03:05:02.984Z,94008.47
2022-09-23T03:06:14.916Z,94002.22
2022-09-23T03:07:20.821Z,94005.81
2022-09-23T03:08:36.888Z,94002.81
2022-09-23T03:09:44.542Z,94014.25
2022-09-23T03:10:55.934Z,94010.34
2022-09-23T03:12:09.519Z,94009.38
2022-09-23T03:13:19.267Z,94008.72
2022-09-23T03:14:29.445Z,94016.69
2022-09-23T03:15:36.173Z,94013.44
2022-09-23T03:16:45.085Z,94010.00
2022-09-23T03:17:55.524Z,94012.91
2022-09-23T03:19:10.244Z,94007.38
2022-09-23T03:20:20.405Z,94008.34
2022-09-23T03:21:28.241Z,94010.66
2022-09-23T03:22:33.835Z,94011.75
2022-09-23T03:23:38.736Z,94011.63
2022-09-23T03:24:42.593Z,94008.19
2022-09-23T03:25:47.032Z,94013.84
2022-09-23T03:26:49.738Z,94012.44
2022-09-23T03:27:54.770Z,94007.69
2022-09-23T03:28:57.001Z,94007.69
2022-09-23T03:29:59.330Z,94005.06
2022-09-23T03:31:00.938Z,94007.69
2022-09-23T03:32:03.212Z,94010.13
2022-09-23T03:33:08.436Z,94006.53
2022-09-23T03:34:17.941Z,94011.63
2022-09-23T03:35:22.234Z,94007.69
2022-09-23T03:36:28.618Z,94005.50
2022-09-23T03:37:33.261Z,94004.81
2022-09-23T03:38:39.604Z,94001.03
2022-09-23T03:39:44.275Z,94004.97
2022-09-23T03:40:47.834Z,94005.50
2022-09-23T03:41:51.660Z,93999.47
2022-09-23T03:42:53.921Z,94000.56
2022-09-23T03:43:57.429Z,93997.66
2022-09-23T03:44:59.425Z,93996.03
2022-09-23T03:46:00.888Z,93997.97
2022-09-23T03:47:02.416Z,93995.78
2022-09-23T03:48:03.963Z,94001.25
2022-09-23T03:49:16.170Z,94004.25
2022-09-23T03:50:18.072Z,94003.72
2022-09-23T03:51:22.530Z,94006.03
2022-09-23T03:52:25.376Z,94003.19
2022-09-23T03:53:26.825Z,93997.91
2022-09-23T03:54:28.478Z,93997.09
2022-09-23T03:55:30.103Z,94004.22
2022-09-23T03:56:31.528Z,93997.50
2022-09-23T03:57:33.031Z,93998.03
2022-09-23T03:58:34.407Z,94000.56
2022-09-23T03:59:35.830Z,94006.69
2022-09-23T04:00:37.309Z,93996.84
2022-09-23T04:01:38.752Z,93997.25
2022-09-23T04:02:40.897Z,93997.34
2022-09-23T04:03:42.299Z,93992.25
2022-09-23T04:04:45.452Z,93996.75
2022-09-23T04:05:46.852Z,93996.91
2022-09-23T04:06:48.315Z,94001.47
2022-09-23T04:07:49.710Z,93994.00
2022-09-23T04:08:51.103Z,93994.91
2022-09-23T04:09:52.925Z,93996.91
2022-09-23T04:10:59.517Z,93995.47
2022-09-23T04:12:01.297Z,93990.41
2022-09-23T04:13:02.712Z,93988.97
2022-09-23T04:14:04.644Z,93988.09
2022-09-23T04:15:07.158Z,93987.72
2022-09-23T04:16:08.606Z,93983.34
2022-09-23T04:17:10.392Z,93983.06
2022-09-23T04:18:11.863Z,93992.00
2022-09-23T04:19:14.274Z,93985.06
2022-09-23T04:20:17.077Z,93986.47
2022-09-23T04:21:18.784Z,93982.88
2022-09-23T04:22:20.476Z,93981.09
2022-09-23T04:23:21.874Z,93980.44
2022-09-23T04:24:24.033Z,93976.31
2022-09-23T04:25:25.503Z,93974.81
2022-09-23T04:26:27.101Z,93980.88
2022-09-23T04:27:28.529Z,93980.22
2022-09-23T04:28:29.972Z,93986.75
2022-09-23T04:29:31.410Z,93977.13
2022-09-23T04:30:32.848Z,93977.59
2022-09-23T04:31:34.752Z,93977.72
2022-09-23T04:32:36.234Z,93972.50
2022-09-23T04:33:37.655Z,93979.69
2022-09-23T04:34:39.083Z,93976.56
2022-09-23T04:35:41.924Z,93975.13
2022-09-23T04:36:44.162Z,93979.69
2022-09-23T04:37:47.720Z,93974.09
2022-09-23T04:38:49.896Z,93974.25
2022-09-23T04:39:51.347Z,93969.97
2022-09-23T04:40:52.857Z,93970.97
2022-09-23T04:41:54.366Z,93977.00
2022-09-23T04:42:55.806Z,93970.44
2022-09-23T04:43:57.429Z,93972.22
2022-09-23T04:44:58.881Z,93972.75
2022-09-23T04:46:00.993Z,93978.97
2022-09-23T04:47:02.494Z,93969.16
2022-09-23T04:48:03.990Z,93972.38
2022-09-23T04:49:06.189Z,93972.88
2022-09-23T04:50:08.462Z,93976.19
2022-09-23T04:51:13.612Z,93969.69
2022-09-23T04:52:15.047Z,93973.09
2022-09-23T04:53:16.470Z,93981.63
2022-09-23T04:54:17.957Z,93978.31
2022-09-23T04:55:19.864Z,93974.09
2022-09-23T04:56:23.407Z,93980.44
2022-09-23T04:57:24.852Z,93980.59
2022-09-23T04:58:26.263Z,93980.88
2022-09-23T04:59:27.722Z,93977.75
2022-09-23T05:00:29.230Z,93976.78
2022-09-23T05:01:32.662Z,93974.16
2022-09-23T05:02:34.298Z,93974.31
2022-09-23T05:03:35.770Z,93979.97
2022-09-23T05:04:37.278Z,93979.00
2022-09-23T05:05:38.693Z,93974.91
2022-09-23T05:06:41.598Z,93974.91
2022-09-23T05:07:43.010Z,93980.97
2022-09-23T05:08:49.940Z,93973.56
2022-09-23T05:09:51.486Z,93980.88
2022-09-23T05:10:56.743Z,93980.34
2022-09-23T05:11:58.280Z,93981.16
2022-09-23T05:12:59.739Z,93981.84
2022-09-23T05:14:01.171Z,93976.31
2022-09-23T05:15:03.005Z,93983.19
2022-09-23T05:16:06.402Z,93981.38
2022-09-23T05:17:07.923Z,93984.00
2022-09-23T05:18:09.382Z,93980.72
2022-09-23T05:19:10.996Z,93980.06
2022-09-23T05:20:12.415Z,93989.00
2022-09-23T05:21:16.038Z,93980.72
2022-09-23T05:22:18.822Z,93984.69
2022-09-23T05:23:20.256Z,93984.56
2022-09-23T05:24:21.716Z,93987.81
2022-09-23T05:25:23.128Z,93990.00
2022-09-23T05:26:26.666Z,93985.88
2022-09-23T05:27:28.421Z,93990.81
2022-09-23T05:28:31.300Z,93996.25
2022-09-23T05:29:32.939Z,93990.75
2022-09-23T05:30:34.355Z,93991.16
2022-09-23T05:31:35.857Z,93988.56
2022-09-23T05:32:37.340Z,93989.41
2022-09-23T05:33:38.751Z,93986.63
2022-09-23T05:34:40.289Z,93991.25
2022-09-23T05:35:46.623Z,93988.19
2022-09-23T05:36:48.072Z,93987.97
2022-09-23T05:37:50.875Z,93982.19
2022-09-23T05:38:52.585Z,93987.69
2022-09-23T05:39:54.016Z,93985.16
2022-09-23T05:40:56.523Z,93992.91
2022-09-23T05:41:57.966Z,93993.75
2022-09-23T05:42:59.419Z,93986.47
2022-09-23T05:44:01.482Z,93990.28
2022-09-23T05:45:02.933Z,93990.97
2022-09-23T05:46:08.179Z,93990.03
2022-09-23T05:47:10.071Z,93988.13
2022-09-23T05:48:11.525Z,93988.47
2022-09-23T05:49:13.035Z,93988.97
2022-09-23T05:50:14.750Z,93988.34
2022-09-23T05:51:17.977Z,93988.69
2022-09-23T05:52:19.414Z,93988.69
2022-09-23T05:53:22.210Z,93996.56
2022-09-23T05:54:23.604Z,93989.25
2022-09-23T05:55:25.084Z,93987.78
2022-09-23T05:56:28.253Z,93996.03
2022-09-23T05:57:29.751Z,93992.09
2022-09-23T05:58:31.180Z,93995.59
2022-09-23T05:59:32.646Z,93994.31
2022-09-23T06:00:34.041Z,93994.47
2022-09-23T06:01:35.962Z,93991.69
2022-09-23T06:02:37.550Z,93991.69
2022-09-23T06:03:39.637Z,93994.28
2022-09-23T06:04:41.044Z,93990.69
2022-09-23T06:05:42.504Z,93995.75
2022-09-23T06:06:43.970Z,93990.13
2022-09-23T06:07:45.360Z,93989.25
2022-09-23T06:08:48.132Z,93987.91
2022-09-23T06:09:49.551Z,93992.97
2022-09-23T06:10:54.337Z,93988.72
2022-09-23T06:11:56.085Z,93998.63
2022-09-23T06:12:57.501Z,93994.53
2022-09-23T06:14:00.385Z,93993.84
2022-09-23T06:15:01.856Z,93996.47
2022-09-23T06:16:03.424Z,93996.63
2022-09-23T06:17:04.900Z,93992.84
2022-09-23T06:18:06.835Z,93997.09
2022-09-23T06:19:08.349Z,93994.94
2022-09-23T06:20:10.253Z,94006.44
2022-09-23T06:21:13.602Z,93991.97
2022-09-23T06:22:15.027Z,93995.06
2022-09-23T06:23:16.440Z,93996.16
2022-09-23T06:24:22.309Z,93988.09
2022-09-23T06:25:24.512Z,93999.75
2022-09-23T06:26:26.366Z,93993.63
2022-09-23T06:27:27.771Z,93997.59
2022-09-23T06:28:30.703Z,93994.41
2022-09-23T06:29:32.120Z,93991.59
2022-09-23T06:30:33.510Z,93986.66
2022-09-23T06:31:34.986Z,93989.41
2022-09-23T06:32:36.473Z,93989.88
2022-09-23T06:33:37.912Z,93993.06
2022-09-23T06:34:50.293Z,93991.78
2022-09-23T06:35:59.788Z,93995.34
2022-09-23T06:37:10.315Z,93991.56
2022-09-23T06:38:18.415Z,93989.28
2022-09-23T06:39:21.145Z,93997.41
2022-09-23T06:40:22.754Z,93996.34
2022-09-23T06:41:24.347Z,93999.34
2022-09-23T06:42:25.751Z,93995.88
2022-09-23T06:43:27.188Z,93999.06
2022-09-23T06:44:28.624Z,93993.34
2022-09-23T06:45:30.007Z,93994.34
2022-09-23T06:46:31.515Z,93994.22
2022-09-23T06:47:33.190Z,93991.25
2022-09-23T06:48:34.919Z,93996.25
2022-09-23T06:49:36.315Z,93995.31
2022-09-23T06:50:37.753Z,93999.59
2022-09-23T06:51:39.265Z,94001.06
2022-09-23T06:52:40.711Z,93993.97
2022-09-23T06:53:42.145Z,93998.28
2022-09-23T06:54:44.858Z,94002.78
2022-09-23T06:55:46.339Z,93997.25
2022-09-23T06:56:47.777Z,94000.38
2022-09-23T06:57:49.165Z,93997.66
2022-09-23T06:58:51.405Z,94005.66
2022-09-23T06:59:52.802Z,94002.69
2022-09-23T07:01:00.088Z,93999.84
2022-09-23T07:02:01.725Z,94002.84
2022-09-23T07:03:06.537Z,94004.00
2022-09-23T07:04:08.549Z,94010.69
2022-09-23T07:05:10.378Z,94006.47
2022-09-23T07:06:12.127Z,94010.97
2022-09-23T07:07:13.555Z,94007.03
2022-09-23T07:08:15.013Z,94010.50
2022-09-23T07:09:16.696Z,94004.91
2022-09-23T07:10:19.519Z,94014.13
2022-09-23T07:11:20.962Z,94013.00
2022-09-23T07:12:22.390Z,94006.25
2022-09-23T07:13:24.433Z,94006.44
2022-09-23T07:14:25.874Z,94014.03
2022-09-23T07:15:27.418Z,94008.06
2022-09-23T07:16:28.894Z,94007.25
2022-09-23T07:17:30.376Z,94000.63
2022-09-23T07:18:36.735Z,94009.00
2022-09-23T07:19:38.582Z,94011.03
2022-09-23T07:20:39.993Z,94008.47
2022-09-23T07:21:41.400Z,94004.88
2022-09-23T07:22:42.811Z,94013.03
2022-09-23T07:23:45.924Z,94003.75
2022-09-23T07:24:47.342Z,94013.97
2022-09-23T07:25:50.083Z,93999.56
2022-09-23T07:26:51.511Z,94009.66
2022-09-23T07:27:52.918Z,94007.91
2022-09-23T07:28:55.282Z,94006.03
2022-09-23T07:29:56.773Z,94004.84
2022-09-23T07:31:03.721Z,94003.09
2022-09-23T07:32:12.719Z,94005.03
2022-09-23T07:33:28.715Z,93999.66
2022-09-23T07:34:32.736Z,93999.09
2022-09-23T07:35:39.361Z,93999.47
2022-09-23T07:36:41.133Z,94000.00
2022-09-23T07:37:42.745Z,93998.03
2022-09-23T07:38:45.760Z,94002.00
2022-09-23T07:39:47.370Z,94004.38
2022-09-23T07:40:50.223Z,94003.34
2022-09-23T07:41:51.769Z,93999.38
2022-09-23T07:42:53.431Z,94001.19
2022-09-23T07:43:55.433Z,93996.19
2022-09-23T07:44:56.895Z,93997.59
2022-09-23T07:45:59.480Z,94000.88
2022-09-23T07:47:01.007Z,94003.34
2022-09-23T07:48:03.174Z,94001.16
2022-09-23T07:49:05.201Z,94000.47
2022-09-23T07:50:08.196Z,94004.00
2022-09-23T07:51:11.954Z,94002.16
2022-09-23T07:52:13.386Z,93996.81
2022-09-23T07:53:14.824Z,94002.72
2022-09-23T07:54:17.102Z,94005.84
2022-09-23T07:55:20.964Z,94002.31
2022-09-23T07:56:27.421Z,94005.91
2022-09-23T07:57:28.853Z,94010.34
2022-09-23T07:58:30.327Z,93998.81
2022-09-23T07:59:31.732Z,93999.09
2022-09-23T08:00:33.242Z,94000.28
2022-09-23T08:01:36.615Z,93999.31
2022-09-23T08:02:38.092Z,94007.16
2022-09-23T08:03:39.781Z,94003.19
2022-09-23T08:04:41.199Z,94009.31
2022-09-23T08:05:42.729Z,94006.34
2022-09-23T08:06:46.629Z,94004.53
2022-09-23T08:07:48.067Z,94012.91
2022-09-23T08:08:53.186Z,94004.47
2022-09-23T08:09:54.964Z,94002.50
2022-09-23T08:11:00.730Z,94004.53
2022-09-23T08:12:03.971Z,94006.16
2022-09-23T08:13:05.621Z,94005.34
2022-09-23T08:14:07.211Z,94000.50
2022-09-23T08:15:09.333Z,94001.97
2022-09-23T08:16:10.774Z,94003.56
2022-09-23T08:17:12.803Z,93999.81
2022-09-23T08:18:14.201Z,94008.78
2022-09-23T08:19:16.567Z,94001.09
2022-09-23T08:20:18.139Z,94008.50
2022-09-23T08:21:21.450Z,94002.25
2022-09-23T08:22:22.974Z,94004.53
2022-09-23T08:23:24.850Z,94001.75
2022-09-23T08:24:26.420Z,94005.41
2022-09-23T08:25:28.037Z,94003.00
2022-09-23T08:26:29.646Z,94005.75
2022-09-23T08:27:32.562Z,94004.84
2022-09-23T08:28:34.024Z,94009.44
2022-09-23T08:29:35.424Z,94009.59
2022-09-23T08:30:38.983Z,94007.09
2022-09-23T08:31:40.800Z,94007.91
2022-09-23T08:32:42.266Z,94005.00
2022-09-23T08:33:43.680Z,94008.44
2022-09-23T08:34:45.085Z,94005.75
2022-09-23T08:35:46.515Z,94002.72
2022-09-23T08:36:48.506Z,94001.53
2022-09-23T08:37:49.935Z,94003.69
2022-09-23T08:38:51.368Z,94005.41
2022-09-23T08:39:52.799Z,94000.56
2022-09-23T08:41:05.530Z,94005.81
2022-09-23T08:42:16.114Z,93997.31
2022-09-23T08:43:25.030Z,94001.00
2022-09-23T08:44:33.648Z,93992.81
2022-09-23T08:45:37.590Z,94003.00
2022-09-23T08:46:44.837Z,94004.91
2022-09-23T08:47:52.239Z,94006.75
2022-09-23T08:48:54.934Z,93998.66
2022-09-23T08:50:01.690Z,94000.41
2022-09-23T08:51:06.203Z,94000.22
2022-09-23T08:52:15.861Z,93997.66
2022-09-23T08:53:23.479Z,93998.72
2022-09-23T08:54:31.473Z,93997.44
2022-09-23T08:55:35.575Z,94001.94
2022-09-23T08:56:37.989Z,94002.16
2022-09-23T08:58:02.276Z,94004.59
2022-09-23T08:59:17.527Z,94011.16
2022-09-23T09:00:21.034Z,94002.28
2022-09-23T09:01:29.849Z,93997.28
2022-09-23T09:02:34.871Z,94002.50
2022-09-23T09:03:42.752Z,94005.97
2022-09-23T09:04:47.164Z,93994.59
2022-09-23T09:05:54.199Z,93997.22
2022-09-23T09:07:18.306Z,93995.41
2022-09-23T09:08:28.059Z,93992.97
2022-09-23T09:09:32.834Z,93997.41
2022-09-23T09:10:41.179Z,93997.38
2022-09-23T09:11:48.768Z,94005.16
2022-09-23T09:12:55.806Z,94003.94
2022-09-23T09:14:03.522Z,93996.00
2022-09-23T09:15:11.636Z,93997.44
2022-09-23T09:16:55.636Z,93994.75
2022-09-23T09:17:59.635Z,93993.16
2022-09-23T09:19:01.678Z,93991.34
2022-09-23T09:20:17.556Z,93986.88
2022-09-23T09:21:21.345Z,93993.03
2022-09-23T09:22:39.073Z,93986.25
2022-09-23T09:23:45.830Z,93984.19
2022-09-23T09:24:49.108Z,93981.56
2022-09-23T09:25:52.508Z,93981.84
2022-09-23T09:26:54.018Z,93978.81
2022-09-23T09:27:56.986Z,93976.97
2022-09-23T09:29:17.270Z,93977.94
2022-09-23T09:30:27.780Z,93976.13
2022-09-23T09:31:32.643Z,93974.22
2022-09-23T09:32:41.649Z,93970.47
2022-09-23T09:33:52.064Z,93966.06
2022-09-23T09:34:59.092Z,93970.53
2022-09-23T09:36:20.636Z,93974.31
2022-09-23T09:37:27.705Z,93969.13
2022-09-23T09:38:29.248Z,93960.81
2022-09-23T09:39:30.920Z,93964.09
2022-09-23T09:40:34.093Z,93963.25
2022-09-23T09:41:35.575Z,93959.44
2022-09-23T09:42:38.760Z,93958.56
2022-09-23T09:43:44.027Z,93963.91
2022-09-23T09:44:50.441Z,93967.38
2022-09-23T09:46:04.057Z,93960.09
2022-09-23T09:47:21.729Z,93968.84
2022-09-23T09:48:29.101Z,93963.72
2022-09-23T09:49:40.376Z,93965.16
2022-09-23T09:50:45.404Z,93967.41
2022-09-23T09:51:46.821Z,93966.63
2022-09-23T09:52:48.878Z,93965.00
2022-09-23T09:53:50.728Z,93965.81
2022-09-23T09:54:52.953Z,93958.03
2022-09-23T09:56:04.591Z,93958.84
2022-09-23T09:57:17.164Z,93954.72
2022-09-23T09:58:18.686Z,93953.75
2022-09-23T09:59:26.058Z,93952.78
2022-09-23T10:00:37.917Z,93955.59
2022-09-23T10:01:40.739Z,93951.97
2022-09-23T10:02:42.635Z,93952.34
2022-09-23T10:03:44.659Z,93944.59
2022-09-23T10:04:46.154Z,93951.75
2022-09-23T10:05:50.005Z,93954.19
2022-09-23T10:07:06.197Z,93949.47
2022-09-23T10:08:22.634Z,93952.53
2022-09-23T10:09:32.311Z,93953.56
2022-09-23T10:10:34.017Z,93952.34
2022-09-23T10:11:35.989Z,93957.22
2022-09-23T10:12:43.679Z,93948.22
2022-09-23T10:14:10.606Z,93950.91
2022-09-23T10:15:27.296Z,93950.28
2022-09-23T10:16:29.949Z,93945.31
2022-09-23T10:17:34.274Z,93942.09
2022-09-23T10:18:38.198Z,93939.44
2022-09-23T10:19:45.247Z,93942.66
2022-09-23T10:20:48.197Z,93944.38
2022-09-23T10:21:52.528Z,93940.53
2022-09-23T10:22:54.036Z,93935.13
2022-09-23T10:23:57.815Z,93938.72
2022-09-23T10:25:02.461Z,93939.03
2022-09-23T10:26:06.752Z,93941.16
2022-09-23T10:27:10.368Z,93936.78
2022-09-23T10:28:32.605Z,93936.34
2022-09-23T10:29:38.254Z,93934.78
2022-09-23T10:30:39.746Z,93937.66
2022-09-23T10:31:41.231Z,93942.50
2022-09-23T10:32:45.026Z,93937.63
2022-09-23T10:33:48.934Z,93938.47
2022-09-23T10:34:53.017Z,93942.34
2022-09-23T10:35:54.438Z,93945.63
2022-09-23T10:37:02.404Z,93939.66
2022-09-23T10:38:03.912Z,93933.34
2022-09-23T10:39:06.369Z,93938.22
2022-09-23T10:40:19.846Z,93939.38
2022-09-23T10:41:31.542Z,93934.69
2022-09-23T10:42:49.313Z,93933.28
2022-09-23T10:44:03.538Z,93930.91
2022-09-23T10:45:17.270Z,93935.69
2022-09-23T10:46:23.535Z,93929.44
2022-09-23T10:47:34.127Z,93935.06
2022-09-23T10:48:51.082Z,93934.13
2022-09-23T10:50:08.802Z,93933.78
2022-09-23T10:51:24.078Z,93941.34
2022-09-23T10:52:43.976Z,93935.81
2022-09-23T10:53:55.143Z,93936.25
2022-09-23T10:55:07.277Z,93936.72
2022-09-23T10:56:19.901Z,93929.22
2022-09-23T10:57:35.872Z,93928.81
2022-09-23T10:59:02.123Z,93928.66
2022-09-23T11:00:10.726Z,93926.34
2022-09-23T11:01:25.427Z,93916.16
2022-09-23T11:02:51.568Z,93918.09
2022-09-23T11:04:21.372Z,93926.16
2022-09-23T11:05:36.881Z,93916.00
2022-09-23T11:06:48.048Z,93916.22
2022-09-23T11:08:02.608Z,93916.91
2022-09-23T11:09:18.422Z,93918.25
2022-09-23T11:10:46.250Z,93910.44
2022-09-23T11:12:01.070Z,93916.44
2022-09-23T11:13:09.908Z,93911.25
2022-09-23T11:14:26.293Z,93917.28
2022-09-23T11:15:42.326Z,93920.94
2022-09-23T11:17:02.760Z,93913.75
2022-09-23T11:18:20.887Z,93911.53
2022-09-23T11:19:45.712Z,93910.19
2022-09-23T11:20:56.313Z,93911.25
2022-09-23T11:22:15.381Z,93913.47
2022-09-23T11:23:35.061Z,93905.19
2022-09-23T11:24:54.021Z,93907.66
2022-09-23T11:26:05.561Z,93899.97
2022-09-23T11:27:17.523Z,93903.28
2022-09-23T11:28:35.666Z,93900.97
2022-09-23T11:29:55.332Z,93897.88
2022-09-23T11:31:02.712Z,93898.63
2022-09-23T11:32:24.920Z,93897.34
2022-09-23T11:33:44.666Z,93891.75
2022-09-23T11:35:00.535Z,93892.84
2022-09-23T11:36:07.398Z,93897.50
2022-09-23T11:37:14.277Z,93886.91
2022-09-23T11:38:19.840Z,93898.63
2022-09-23T11:39:25.352Z,93888.94
2022-09-23T11:40:31.361Z,93894.78
2022-09-23T11:41:37.096Z,93882.38
2022-09-23T11:42:46.100Z,93888.47
2022-09-23T11:43:51.562Z,93887.28
2022-09-23T11:44:58.293Z,93887.66
2022-09-23T11:46:06.662Z,93885.75
2022-09-23T11:47:14.192Z,93887.88
2022-09-23T11:48:20.154Z,93882.88
2022-09-23T11:49:29.696Z,93881.16
2022-09-23T11:50:38.077Z,93880.66
2022-09-23T11:51:48.597Z,93881.28
2022-09-23T11:52:56.485Z,93883.69
2022-09-23T11:54:02.106Z,93880.66
2022-09-23T11:55:19.420Z,93875.25
2022-09-23T11:56:34.601Z,93877.03
2022-09-23T11:57:48.456Z,93875.31
2022-09-23T11:59:00.730Z,93873.56
2022-09-23T12:00:07.113Z,93869.56
2022-09-23T12:01:13.187Z,93865.22
2022-09-23T12:02:25.664Z,93869.13
2022-09-23T12:03:44.876Z,93866.81
2022-09-23T12:04:57.623Z,93861.88
2022-09-23T12:06:05.258Z,93862.03
2022-09-23T12:07:14.735Z,93863.13
2022-09-23T12:08:24.185Z,93862.16
2022-09-23T12:09:56.704Z,93865.72
2022-09-23T12:11:01.067Z,93866.22
2022-09-23T12:12:12.463Z,93861.94
2022-09-23T12:13:18.600Z,93864.38
2022-09-23T12:14:27.287Z,93864.75
2022-09-23T12:15:40.380Z,93866.66
2022-09-23T12:17:23.165Z,93856.91
2022-09-23T12:18:36.595Z,93845.53
2022-09-23T12:19:57.855Z,93849.22
2022-09-23T12:21:49.651Z,93848.34
2022-09-23T12:23:04.249Z,93843.94
2022-09-23T12:24:42.089Z,93844.06
2022-09-23T12:25:48.256Z,93844.25
2022-09-23T12:26:52.873Z,93845.53
2022-09-23T12:28:00.338Z,93843.25
2022-09-23T12:29:04.677Z,93841.25
2022-09-23T12:30:14.209Z,93838.66
2022-09-23T12:31:18.065Z,93832.44
2022-09-23T12:32:19.796Z,93839.56
2022-09-23T12:33:23.420Z,93838.53
2022-09-23T12:34:30.081Z,93833.50
2022-09-23T12:35:38.036Z,93836.75
2022-09-23T12:36:40.833Z,93834.91
2022-09-23T12:37:42.408Z,93835.09
2022-09-23T12:38:48.729Z,93836.78
2022-09-23T12:39:50.231Z,93832.47
2022-09-23T12:40:53.567Z,93830.84
2022-09-23T12:41:58.820Z,93830.69
2022-09-23T12:43:01.222Z,93834.31
2022-09-23T12:44:15.067Z,93832.19
2022-09-23T12:45:35.371Z,93840.66
2022-09-23T12:46:36.964Z,93835.09
2022-09-23T12:47:39.582Z,93833.47
2022-09-23T12:48:46.623Z,93834.44
2022-09-23T12:49:48.573Z,93827.97
2022-09-23T12:50:52.992Z,93824.84
2022-09-23T12:52:23.104Z,93819.75
2022-09-23T12:53:55.759Z,93821.28
2022-09-23T12:54:58.719Z,93816.75